createdAt,value
2018-06-08T00:01:31.305Z,9.40
2018-06-08T00:04:01.576Z,10.27
2018-06-08T00:06:31.939Z,9.00
2018-06-08T00:09:02.407Z,11.47
2018-06-08T00:11:32.723Z,9.50
2018-06-08T00:14:02.724Z,9.77
2018-06-08T00:16:32.923Z,9.70
2018-06-08T00:19:03.205Z,9.13
2018-06-08T00:21:33.512Z,9.50
2018-06-08T00:24:03.788Z,9.27
2018-06-08T00:26:34.100Z,8.57
2018-06-08T00:29:04.396Z,8.07
2018-06-08T00:31:34.737Z,8.83
2018-06-08T00:34:05.008Z,11.00
2018-06-08T00:36:35.305Z,8.30
2018-06-08T00:39:09.295Z,9.90
2018-06-08T00:41:39.615Z,9.30
2018-06-08T00:44:09.936Z,9.17
2018-06-08T00:46:40.352Z,10.17
2018-06-08T00:49:10.732Z,8.90
2018-06-08T00:51:41.085Z,7.90
2018-06-08T00:54:11.099Z,9.80
2018-06-08T00:56:58.276Z,8.60
2018-06-08T00:59:28.543Z,9.00
2018-06-08T01:01:58.868Z,9.20
2018-06-08T01:04:29.134Z,9.67
2018-06-08T01:06:59.548Z,9.43
2018-06-08T01:09:29.822Z,8.57
2018-06-08T01:12:00.149Z,9.03
2018-06-08T01:14:32.997Z,9.07
2018-06-08T01:17:03.589Z,7.53
2018-06-08T01:19:35.139Z,8.40
2018-06-08T01:22:05.456Z,8.70
2018-06-08T01:24:35.768Z,7.57
2018-06-08T01:27:06.990Z,10.27
2018-06-08T01:29:37.272Z,7.80
2018-06-08T01:32:07.540Z,8.40
2018-06-08T01:34:37.844Z,7.90
2018-06-08T01:37:08.127Z,9.30
2018-06-08T01:39:38.485Z,8.40
2018-06-08T01:42:08.761Z,7.10
2018-06-08T01:44:39.067Z,8.40
2018-06-08T01:47:09.393Z,8.40
2018-06-08T01:49:39.716Z,8.90
2018-06-08T01:52:10.045Z,8.07
2018-06-08T01:54:40.328Z,8.13
2018-06-08T01:57:10.622Z,8.53
2018-06-08T01:59:40.909Z,8.27
2018-06-08T02:02:11.225Z,8.53
2018-06-08T02:04:41.537Z,10.00
2018-06-08T02:07:11.866Z,7.43
2018-06-08T02:09:42.137Z,8.50
2018-06-08T02:12:12.413Z,7.53
2018-06-08T02:14:42.723Z,8.13
2018-06-08T02:17:12.969Z,8.30
2018-06-08T02:19:43.287Z,8.17
2018-06-08T02:22:13.560Z,8.17
2018-06-08T02:24:43.887Z,9.00
2018-06-08T02:27:14.108Z,8.43
2018-06-08T02:29:44.436Z,8.77
2018-06-08T02:32:14.736Z,8.07
2018-06-08T02:34:45.061Z,10.57
2018-06-08T02:37:15.385Z,8.83
2018-06-08T02:39:45.389Z,8.50
2018-06-08T02:42:15.284Z,7.83
2018-06-08T02:44:45.461Z,7.63
2018-06-08T02:47:15.750Z,9.00
2018-06-08T02:49:45.797Z,7.63
2018-06-08T02:52:15.976Z,8.00
2018-06-08T02:54:46.263Z,7.87
2018-06-08T02:57:16.590Z,10.33
2018-06-08T02:59:46.852Z,7.80
2018-06-08T03:02:16.878Z,15.43
2018-06-08T03:04:47.075Z,9.53
2018-06-08T03:07:17.408Z,8.60
2018-06-08T03:09:47.656Z,8.20
2018-06-08T03:12:17.986Z,8.63
2018-06-08T03:14:48.273Z,8.03
2018-06-08T03:17:18.657Z,8.73
2018-06-08T03:19:48.956Z,9.43
2018-06-08T03:22:19.323Z,9.23
2018-06-08T03:24:49.669Z,10.10
2018-06-08T03:27:19.982Z,8.57
2018-06-08T03:29:50.357Z,10.53
2018-06-08T03:32:20.652Z,14.07
2018-06-08T03:34:50.909Z,9.17
2018-06-08T03:37:21.357Z,8.60
2018-06-08T03:39:51.703Z,8.90
2018-06-08T03:42:22.033Z,9.60
2018-06-08T03:44:52.360Z,8.47
2018-06-08T03:47:22.675Z,9.20
2018-06-08T03:49:52.954Z,8.90
2018-06-08T03:52:23.448Z,8.13
2018-06-08T03:54:53.764Z,9.10
2018-06-08T03:57:24.153Z,9.33
2018-06-08T03:59:54.481Z,11.07
2018-06-08T04:02:24.779Z,9.60
2018-06-08T04:04:55.088Z,8.37
2018-06-08T04:07:25.452Z,8.87
2018-06-08T04:09:55.807Z,9.27
2018-06-08T04:12:26.073Z,8.87
2018-06-08T04:14:56.347Z,10.43
2018-06-08T04:17:26.599Z,8.00
2018-06-08T04:19:56.880Z,7.53
2018-06-08T04:22:27.140Z,8.03
2018-06-08T04:24:57.094Z,9.50
2018-06-08T04:27:27.286Z,7.97
2018-06-08T04:29:57.575Z,8.70
2018-06-08T04:32:27.881Z,8.90
2018-06-08T04:34:58.162Z,12.70
2018-06-08T04:37:28.447Z,9.23
2018-06-08T04:39:58.721Z,9.20
2018-06-08T04:42:29.009Z,9.50
2018-06-08T04:44:59.259Z,8.40
2018-06-08T04:47:29.508Z,11.93
2018-06-08T04:49:59.752Z,10.87
2018-06-08T04:52:30.367Z,9.07
2018-06-08T04:55:00.640Z,9.67
2018-06-08T04:57:30.669Z,9.00
2018-06-08T05:00:00.833Z,8.10
2018-06-08T05:02:31.188Z,9.00
2018-06-08T05:05:01.469Z,9.60
2018-06-08T05:07:31.748Z,8.93
2018-06-08T05:10:02.057Z,10.30
2018-06-08T05:12:32.328Z,11.80
2018-06-08T05:15:02.592Z,9.53
2018-06-08T05:17:32.883Z,45.13
2018-06-08T05:20:03.178Z,29.70
2018-06-08T05:22:33.488Z,37.07
2018-06-08T05:25:03.492Z,25.40
2018-06-08T05:27:33.351Z,24.80
2018-06-08T05:30:07.643Z,40.90
2018-06-08T05:32:37.948Z,22.93
2018-06-08T05:35:08.251Z,14.20
2018-06-08T05:37:38.577Z,10.00
2018-06-08T05:40:08.920Z,10.63
2018-06-08T05:42:39.230Z,11.67
2018-06-08T05:45:09.473Z,10.73
2018-06-08T05:47:39.782Z,9.73
2018-06-08T05:50:10.117Z,11.40
2018-06-08T05:52:40.339Z,10.23
2018-06-08T05:55:10.524Z,11.53
2018-06-08T05:57:40.820Z,9.93
2018-06-08T06:00:11.181Z,21.00
2018-06-08T06:02:41.503Z,19.73
2018-06-08T06:05:11.973Z,11.67
2018-06-08T06:07:42.266Z,10.00
2018-06-08T06:10:12.555Z,10.03
2018-06-08T06:12:42.847Z,9.63
2018-06-08T06:15:13.192Z,9.60
2018-06-08T06:17:43.501Z,9.47
2018-06-08T06:20:13.812Z,10.20
2018-06-08T06:22:44.112Z,9.70
2018-06-08T06:25:14.447Z,9.77
2018-06-08T06:27:44.769Z,10.40
2018-06-08T06:30:15.066Z,8.23
2018-06-08T06:32:45.357Z,25.30
2018-06-08T06:35:15.635Z,23.10
2018-06-08T06:37:46.018Z,9.33
2018-06-08T06:40:16.412Z,8.43
2018-06-08T06:42:46.705Z,8.80
2018-06-08T06:45:17.444Z,42.23
2018-06-08T06:47:47.717Z,35.63
2018-06-08T06:50:18.045Z,12.80
2018-06-08T06:52:48.488Z,9.03
2018-06-08T06:55:18.805Z,9.27
2018-06-08T06:57:49.096Z,9.00
2018-06-08T07:00:19.515Z,9.67
2018-06-08T07:02:49.800Z,10.20
2018-06-08T07:05:20.131Z,8.53
2018-06-08T07:07:50.405Z,9.50
2018-06-08T07:10:20.705Z,9.57
2018-06-08T07:12:51.078Z,9.70
2018-06-08T07:15:21.319Z,9.20
2018-06-08T07:17:51.678Z,8.90
2018-06-08T07:20:22.023Z,9.00
2018-06-08T07:22:52.321Z,9.90
2018-06-08T07:25:22.589Z,9.00
2018-06-08T07:27:52.867Z,9.07
2018-06-08T07:30:23.272Z,10.40
2018-06-08T07:32:53.573Z,9.00
2018-06-08T07:35:23.838Z,8.10
2018-06-08T07:37:54.118Z,8.80
2018-06-08T07:40:24.520Z,8.23
2018-06-08T07:42:54.805Z,8.70
2018-06-08T07:45:25.105Z,9.87
2018-06-08T07:47:55.376Z,9.80
2018-06-08T07:50:25.664Z,9.47
2018-06-08T07:52:56.057Z,9.63
2018-06-08T07:55:26.363Z,10.17
2018-06-08T07:57:56.679Z,11.50
2018-06-08T08:00:26.944Z,11.23
2018-06-08T08:02:57.281Z,11.40
2018-06-08T08:05:27.637Z,10.93
2018-06-08T08:07:57.917Z,11.23
2018-06-08T08:10:28.267Z,11.30
2018-06-08T08:12:58.562Z,10.60
2018-06-08T08:15:28.868Z,11.50
2018-06-08T08:17:59.200Z,12.13
2018-06-08T08:20:29.565Z,11.47
2018-06-08T08:22:59.814Z,10.87
2018-06-08T08:25:30.116Z,10.93
2018-06-08T08:28:00.393Z,10.93
2018-06-08T08:30:30.753Z,12.00
2018-06-08T08:33:01.049Z,11.50
2018-06-08T08:35:31.375Z,11.30
2018-06-08T08:38:01.599Z,11.73
2018-06-08T08:40:31.902Z,11.43
2018-06-08T08:43:02.237Z,11.87
2018-06-08T08:45:32.554Z,12.00
2018-06-08T08:48:02.811Z,11.60
2018-06-08T08:50:33.146Z,11.17
2018-06-08T08:53:03.636Z,10.83
2018-06-08T08:55:33.843Z,11.70
2018-06-08T08:58:04.176Z,11.63
2018-06-08T09:00:34.446Z,11.30
2018-06-08T09:03:04.434Z,11.20
2018-06-08T09:05:34.689Z,17.77
2018-06-08T09:08:05.368Z,12.70
2018-06-08T09:10:35.653Z,13.50
2018-06-08T09:13:06.055Z,11.90
2018-06-08T09:15:36.321Z,25.57
2018-06-08T09:18:06.625Z,13.40
2018-06-08T09:20:36.930Z,12.27
2018-06-08T09:23:07.237Z,11.70
2018-06-08T09:25:37.505Z,14.00
2018-06-08T09:28:07.813Z,12.27
2018-06-08T09:30:37.744Z,12.63
2018-06-08T09:33:07.905Z,12.23
2018-06-08T09:35:38.217Z,12.60
2018-06-08T09:38:08.485Z,15.40
2018-06-08T09:40:38.785Z,12.77
2018-06-08T09:43:09.070Z,12.63
2018-06-08T09:45:39.353Z,12.67
2018-06-08T09:48:09.325Z,12.67
2018-06-08T09:50:39.583Z,11.43
2018-06-08T09:53:10.197Z,17.53
2018-06-08T09:55:40.642Z,14.10
2018-06-08T09:58:10.955Z,11.67
2018-06-08T10:00:41.663Z,12.33
2018-06-08T10:03:12.296Z,11.40
2018-06-08T10:05:42.630Z,13.37
2018-06-08T10:08:12.944Z,12.67
2018-06-08T10:10:43.256Z,12.40
2018-06-08T10:13:13.557Z,13.13
2018-06-08T10:15:43.905Z,12.70
2018-06-08T10:18:14.255Z,12.90
2018-06-08T10:20:44.723Z,12.70
2018-06-08T10:23:15.131Z,13.93
2018-06-08T10:25:45.473Z,13.53
2018-06-08T10:28:15.940Z,13.00
2018-06-08T10:30:46.306Z,13.57
2018-06-08T10:33:16.599Z,13.13
2018-06-08T10:35:46.972Z,12.67
2018-06-08T10:38:17.007Z,41.97
2018-06-08T10:40:47.412Z,25.03
2018-06-08T10:43:17.472Z,23.20
2018-06-08T10:45:47.668Z,13.70
2018-06-08T10:48:18.037Z,13.20
2018-06-08T10:50:48.302Z,12.93
2018-06-08T10:53:18.728Z,13.13
2018-06-08T10:55:49.082Z,12.93
2018-06-08T10:58:19.082Z,13.53
2018-06-08T11:00:49.298Z,12.10
2018-06-08T11:03:19.292Z,12.83
2018-06-08T11:05:49.482Z,11.73
2018-06-08T11:08:19.768Z,12.93
2018-06-08T11:10:50.055Z,12.20
2018-06-08T11:13:20.490Z,13.93
2018-06-08T11:15:51.149Z,13.83
2018-06-08T11:18:21.518Z,13.00
2018-06-08T11:20:51.841Z,12.47
2018-06-08T11:23:22.181Z,13.03
2018-06-08T11:25:52.521Z,13.30
2018-06-08T11:28:22.532Z,51.17
2018-06-08T11:30:52.485Z,17.93
2018-06-08T11:33:22.732Z,13.83
2018-06-08T11:35:53.021Z,11.97
2018-06-08T11:38:23.375Z,13.03
2018-06-08T11:40:53.664Z,13.90
2018-06-08T11:43:24.021Z,13.30
2018-06-08T11:45:54.406Z,13.80
2018-06-08T11:48:24.648Z,13.20
2018-06-08T11:50:54.947Z,12.33
2018-06-08T11:53:25.177Z,13.20
2018-06-08T11:55:55.399Z,13.57
2018-06-08T11:58:25.372Z,12.47
2018-06-08T12:00:55.642Z,12.97
2018-06-08T12:03:26.868Z,12.47
2018-06-08T12:05:57.177Z,13.30
2018-06-08T12:08:27.569Z,13.67
2018-06-08T12:10:57.901Z,13.20
2018-06-08T12:13:28.230Z,13.43
2018-06-08T12:15:58.584Z,13.10
2018-06-08T12:18:28.892Z,13.70
2018-06-08T12:20:59.221Z,13.50
2018-06-08T12:23:29.540Z,13.13
2018-06-08T12:25:59.853Z,12.40
2018-06-08T12:28:30.232Z,14.10
2018-06-08T12:31:00.581Z,13.67
2018-06-08T12:33:30.824Z,12.67
2018-06-08T12:36:01.206Z,13.33
2018-06-08T12:38:31.587Z,13.27
2018-06-08T12:41:01.980Z,13.30
2018-06-08T12:43:32.356Z,13.33
2018-06-08T12:46:02.685Z,12.80
2018-06-08T12:48:32.724Z,13.67
2018-06-08T12:51:02.936Z,13.57
2018-06-08T12:53:33.429Z,12.67
2018-06-08T12:56:03.755Z,15.17
2018-06-08T12:58:34.127Z,12.77
2018-06-08T13:01:04.444Z,13.07
2018-06-08T13:03:34.755Z,14.63
2018-06-08T13:06:04.816Z,13.30
2018-06-08T13:08:35.087Z,14.17
2018-06-08T13:11:05.354Z,13.80
2018-06-08T13:13:35.677Z,15.63
2018-06-08T13:16:06.018Z,15.47
2018-06-08T13:18:36.391Z,15.77
2018-06-08T13:21:06.381Z,14.10
2018-06-08T13:23:36.601Z,15.33
2018-06-08T13:26:06.967Z,15.63
2018-06-08T13:28:36.986Z,15.77
2018-06-08T13:31:07.252Z,14.63
2018-06-08T13:33:37.561Z,14.53
2018-06-08T13:36:07.843Z,15.87
2018-06-08T13:38:38.163Z,14.10
2018-06-08T13:41:08.133Z,13.90
2018-06-08T13:43:38.376Z,13.97
2018-06-08T13:47:13.072Z,13.10
2018-06-08T13:49:43.396Z,13.40
2018-06-08T13:52:13.685Z,13.73
2018-06-08T13:54:44.144Z,13.50
2018-06-08T13:57:14.493Z,13.93
2018-06-08T13:59:44.793Z,13.90
2018-06-08T14:02:15.108Z,14.10
2018-06-08T14:04:45.580Z,13.47
2018-06-08T14:07:15.932Z,13.80
2018-06-08T14:09:46.223Z,13.87
2018-06-08T14:12:16.438Z,13.80
2018-06-08T14:14:46.720Z,15.60
2018-06-08T14:17:16.980Z,13.37
2018-06-08T14:19:47.419Z,13.43
2018-06-08T14:22:18.002Z,14.20
2018-06-08T14:24:48.408Z,25.27
2018-06-08T14:27:18.378Z,53.37
2018-06-08T14:29:48.603Z,21.30
2018-06-08T14:32:18.879Z,14.43
2018-06-08T14:34:48.840Z,14.30
2018-06-08T14:37:19.084Z,12.97
2018-06-08T14:39:49.486Z,13.83
2018-06-08T14:42:19.746Z,12.57
2018-06-08T14:44:49.735Z,13.90
2018-06-08T14:47:19.931Z,13.50
2018-06-08T14:49:50.244Z,14.17
2018-06-08T14:52:20.599Z,13.70
2018-06-08T14:54:51.160Z,13.53
2018-06-08T14:57:21.265Z,13.23
2018-06-08T14:59:51.475Z,14.40
2018-06-08T15:02:21.829Z,14.10
2018-06-08T15:04:52.112Z,13.43
2018-06-08T15:07:22.434Z,12.90
2018-06-08T15:09:52.724Z,14.43
2018-06-08T15:12:23.475Z,14.63
2018-06-08T15:14:53.805Z,15.17
2018-06-08T15:17:24.120Z,13.70
2018-06-08T15:19:54.443Z,13.77
2018-06-08T15:22:24.728Z,14.17
2018-06-08T15:24:55.053Z,14.07
2018-06-08T15:27:25.429Z,14.50
2018-06-08T15:30:07.419Z,14.47
2018-06-08T15:32:37.745Z,14.03
2018-06-08T15:35:08.093Z,14.60
2018-06-08T15:37:38.408Z,13.47
2018-06-08T15:40:08.791Z,12.83
2018-06-08T15:42:39.105Z,13.20
2018-06-08T15:45:09.117Z,12.43
2018-06-08T15:47:39.380Z,11.90
2018-06-08T15:50:09.667Z,12.33
2018-06-08T15:52:40.001Z,10.90
2018-06-08T15:55:10.371Z,11.83
2018-06-08T15:57:40.718Z,12.33
2018-06-08T16:00:11.052Z,31.07
2018-06-08T16:02:41.401Z,44.00
2018-06-08T16:05:11.725Z,28.77
2018-06-08T16:07:41.793Z,34.53
2018-06-08T16:10:12.053Z,12.93
2018-06-08T16:12:42.312Z,16.33
2018-06-08T16:15:12.629Z,19.00
2018-06-08T16:17:42.932Z,13.47
2018-06-08T16:20:13.251Z,12.67
2018-06-08T16:22:43.201Z,13.87
2018-06-08T16:25:13.446Z,12.40
2018-06-08T16:27:43.808Z,21.73
2018-06-08T16:30:13.849Z,24.43
2018-06-08T16:32:44.077Z,19.90
2018-06-08T16:35:14.449Z,41.40
2018-06-08T16:37:44.772Z,36.97
2018-06-08T16:40:15.113Z,13.70
2018-06-08T16:42:45.391Z,13.13
2018-06-08T16:45:15.702Z,14.03
2018-06-08T16:47:45.993Z,14.07
2018-06-08T16:50:15.978Z,12.60
2018-06-08T16:52:46.246Z,18.37
2018-06-08T16:55:16.584Z,39.77
2018-06-08T16:57:46.948Z,14.03
2018-06-08T17:00:17.248Z,14.23
2018-06-08T17:02:47.568Z,13.63
2018-06-08T17:05:17.897Z,14.60
2018-06-08T17:07:48.213Z,15.97
2018-06-08T17:10:19.258Z,14.63
2018-06-08T17:12:49.611Z,14.13
2018-06-08T17:15:19.937Z,13.23
2018-06-08T17:17:50.318Z,14.17
2018-06-08T17:20:20.612Z,13.67
2018-06-08T17:22:50.616Z,31.60
2018-06-08T17:25:20.531Z,18.40
2018-06-08T17:27:50.726Z,15.40
2018-06-08T17:30:21.005Z,16.40
2018-06-08T17:32:51.082Z,13.93
2018-06-08T17:35:21.264Z,14.40
2018-06-08T17:37:51.590Z,14.53
2018-06-08T17:40:21.898Z,15.87
2018-06-08T17:42:52.528Z,15.60
2018-06-08T17:45:22.860Z,15.37
2018-06-08T17:47:53.231Z,16.00
2018-06-08T17:50:23.531Z,16.30
2018-06-08T17:52:53.836Z,17.00
2018-06-08T17:55:24.188Z,18.10
2018-06-08T17:57:54.573Z,25.27
2018-06-08T18:00:24.883Z,17.60
2018-06-08T18:02:55.261Z,18.17
2018-06-08T18:05:25.569Z,16.17
2018-06-08T18:07:55.897Z,16.10
2018-06-08T18:10:26.172Z,17.10
2018-06-08T18:12:56.516Z,16.40
2018-06-08T18:15:26.777Z,17.03
2018-06-08T18:17:57.138Z,16.97
2018-06-08T18:20:27.368Z,17.53
2018-06-08T18:22:57.654Z,18.10
2018-06-08T18:25:27.966Z,18.60
2018-06-08T18:27:58.288Z,17.97
2018-06-08T18:30:28.589Z,18.13
2018-06-08T18:32:58.876Z,17.43
2018-06-08T18:35:29.168Z,27.73
2018-06-08T18:37:59.612Z,29.47
2018-06-08T18:40:29.877Z,28.30
2018-06-08T18:43:00.549Z,26.00
2018-06-08T18:45:31.133Z,21.37
2018-06-08T18:48:02.235Z,21.50
2018-06-08T18:50:32.496Z,18.50
2018-06-08T18:53:02.792Z,19.13
2018-06-08T18:55:33.118Z,19.33
2018-06-08T18:58:03.516Z,18.90
2018-06-08T19:00:33.778Z,18.10
2018-06-08T19:03:04.116Z,19.07
2018-06-08T19:05:34.417Z,18.43
2018-06-08T19:08:04.776Z,18.50
2018-06-08T19:10:35.087Z,19.77
2018-06-08T19:13:05.548Z,17.87
2018-06-08T19:15:35.885Z,19.20
2018-06-08T19:18:06.304Z,19.27
2018-06-08T19:20:36.629Z,19.83
2018-06-08T19:23:07.009Z,19.30
2018-06-08T19:25:37.056Z,20.90
2018-06-08T19:28:07.359Z,18.50
2018-06-08T19:30:37.484Z,18.97
2018-06-08T19:33:07.761Z,18.73
2018-06-08T19:35:40.190Z,19.80
2018-06-08T19:38:10.567Z,20.47
2018-06-08T19:40:40.932Z,19.27
2018-06-08T19:43:11.299Z,20.07
2018-06-08T19:45:41.621Z,20.33
2018-06-08T19:48:11.956Z,19.63
2018-06-08T19:50:42.414Z,17.77
2018-06-08T19:53:12.769Z,19.00
2018-06-08T19:55:43.125Z,18.40
2018-06-08T19:58:13.459Z,20.73
2018-06-08T20:00:43.884Z,21.37
2018-06-08T20:03:14.261Z,22.70
2018-06-08T20:05:44.705Z,21.33
2018-06-08T20:08:15.067Z,21.03
2018-06-08T20:10:46.005Z,20.33
2018-06-08T20:13:16.459Z,20.87
2018-06-08T20:15:46.784Z,20.10
2018-06-08T20:18:17.168Z,18.30
2018-06-08T20:20:47.526Z,21.00
2018-06-08T20:23:17.893Z,20.53
2018-06-08T20:25:48.201Z,20.23
2018-06-08T20:28:18.549Z,18.67
2018-06-08T20:30:48.867Z,19.70
2018-06-08T20:33:19.241Z,21.40
2018-06-08T20:35:49.636Z,19.67
2018-06-08T20:38:19.933Z,19.13
2018-06-08T20:40:50.317Z,19.30
2018-06-08T20:43:20.612Z,20.67
2018-06-08T20:45:50.943Z,21.90
2018-06-08T20:48:21.284Z,19.93
2018-06-08T20:50:51.539Z,19.97
2018-06-08T20:53:21.856Z,20.50
2018-06-08T20:55:52.229Z,19.30
2018-06-08T20:58:29.455Z,19.93
2018-06-08T21:00:59.813Z,19.67
2018-06-08T21:03:30.069Z,20.83
2018-06-08T21:06:00.385Z,18.97
2018-06-08T21:08:30.649Z,21.60
2018-06-08T21:11:00.985Z,18.93
2018-06-08T21:13:31.250Z,21.10
2018-06-08T21:16:01.570Z,20.83
2018-06-08T21:18:31.895Z,20.80
2018-06-08T21:21:02.203Z,20.03
2018-06-08T21:23:32.575Z,20.67
2018-06-08T21:26:02.922Z,20.57
2018-06-08T21:28:33.317Z,20.97
2018-06-08T21:31:03.638Z,21.70
2018-06-08T21:33:33.923Z,21.53
2018-06-08T21:36:04.263Z,21.07
2018-06-08T21:38:34.631Z,19.90
2018-06-08T21:41:04.674Z,20.63
2018-06-08T21:43:34.938Z,21.30
2018-06-08T21:46:05.296Z,21.83
2018-06-08T21:48:35.638Z,20.57
2018-06-08T21:51:06.048Z,21.90
2018-06-08T21:53:36.951Z,19.60
2018-06-08T21:56:07.379Z,20.17
2018-06-08T21:58:37.678Z,20.43
2018-06-08T22:01:10.182Z,20.37
2018-06-08T22:03:40.522Z,20.70
2018-06-08T22:06:10.943Z,19.37
2018-06-08T22:08:41.348Z,21.20
2018-06-08T22:11:11.740Z,19.93
2018-06-08T22:13:42.057Z,19.57
2018-06-08T22:16:12.397Z,21.20
2018-06-08T22:18:42.884Z,21.00
2018-06-08T22:21:13.200Z,21.77
2018-06-08T22:23:43.910Z,20.33
2018-06-08T22:26:14.315Z,19.23
2018-06-08T22:28:44.704Z,20.13
2018-06-08T22:31:15.040Z,18.67
2018-06-08T22:33:45.404Z,21.10
2018-06-08T22:36:15.743Z,19.53
2018-06-08T22:38:46.065Z,21.03
2018-06-08T22:41:16.329Z,20.70
2018-06-08T22:43:46.635Z,20.77
2018-06-08T22:46:16.964Z,20.87
2018-06-08T22:48:47.322Z,20.47
2018-06-08T22:51:17.646Z,19.07
2018-06-08T22:53:47.965Z,19.80
2018-06-08T22:56:18.324Z,19.83
2018-06-08T22:58:48.677Z,20.87
2018-06-08T23:01:18.984Z,20.77
2018-06-08T23:03:49.265Z,20.73
2018-06-08T23:06:19.577Z,19.60
2018-06-08T23:08:49.602Z,19.60
2018-06-08T23:11:19.864Z,20.97
2018-06-08T23:13:50.151Z,19.80
2018-06-08T23:16:20.412Z,20.27
2018-06-08T23:18:50.777Z,20.10
2018-06-08T23:21:20.797Z,20.30
2018-06-08T23:23:51.016Z,19.63
2018-06-08T23:26:21.294Z,19.70
2018-06-08T23:28:51.643Z,20.90
2018-06-08T23:31:21.954Z,21.10
2018-06-08T23:33:52.210Z,21.20
2018-06-08T23:36:22.489Z,20.30
2018-06-08T23:38:52.821Z,20.30
2018-06-08T23:41:23.147Z,19.80
2018-06-08T23:43:53.461Z,18.50
2018-06-08T23:46:23.728Z,19.70
2018-06-08T23:48:54.020Z,20.40
2018-06-08T23:51:24.313Z,21.40
2018-06-08T23:53:54.645Z,21.13
2018-06-08T23:56:24.968Z,19.03
2018-06-08T23:58:55.258Z,20.97
